createdAt,value
2022-11-10T00:02:03.454Z,26.10
2022-11-10T00:04:55.951Z,26.10
2022-11-10T00:07:49.842Z,26.10
2022-11-10T00:10:56.421Z,26.10
2022-11-10T00:14:07.667Z,26.10
2022-11-10T00:17:04.635Z,26.10
2022-11-10T00:19:57.621Z,26.10
2022-11-10T00:22:51.334Z,26.10
2022-11-10T00:25:43.888Z,26.00
2022-11-10T00:28:36.527Z,26.00
2022-11-10T00:31:29.366Z,26.00
2022-11-10T00:34:22.128Z,26.00
2022-11-10T00:37:14.687Z,26.10
2022-11-10T00:40:09.351Z,26.10
2022-11-10T00:43:02.780Z,26.10
2022-11-10T00:45:54.916Z,26.10
2022-11-10T00:48:47.322Z,26.10
2022-11-10T00:51:40.262Z,26.10
2022-11-10T00:54:32.520Z,26.10
2022-11-10T00:57:26.243Z,26.10
2022-11-10T01:00:19.409Z,26.10
2022-11-10T01:03:15.680Z,26.10
2022-11-10T01:06:09.742Z,26.00
2022-11-10T01:09:02.517Z,26.10
2022-11-10T01:11:54.913Z,26.00
2022-11-10T01:14:50.462Z,26.00
2022-11-10T01:17:42.908Z,26.00
2022-11-10T01:20:35.543Z,26.00
2022-11-10T01:23:27.915Z,26.00
2022-11-10T01:26:20.549Z,26.00
2022-11-10T01:29:13.072Z,26.00
2022-11-10T01:32:07.217Z,26.00
2022-11-10T01:34:59.616Z,26.00
2022-11-10T01:37:53.649Z,26.00
2022-11-10T01:40:47.050Z,26.00
2022-11-10T01:43:39.784Z,26.00
2022-11-10T01:46:32.237Z,26.00
2022-11-10T01:49:28.055Z,26.00
2022-11-10T01:52:20.414Z,26.00
2022-11-10T01:55:12.887Z,25.90
2022-11-10T01:58:06.428Z,25.90
2022-11-10T02:00:59.054Z,26.00
2022-11-10T02:03:54.015Z,26.00
2022-11-10T02:06:49.814Z,26.00
2022-11-10T02:09:42.318Z,26.00
2022-11-10T02:12:40.874Z,25.90
2022-11-10T02:15:33.311Z,26.00
2022-11-10T02:18:25.497Z,25.90
2022-11-10T02:21:20.220Z,26.00
2022-11-10T02:24:12.895Z,25.90
2022-11-10T02:27:05.351Z,26.00
2022-11-10T02:29:58.144Z,26.00
2022-11-10T02:32:50.794Z,26.00
2022-11-10T02:35:43.566Z,26.00
2022-11-10T02:38:37.546Z,26.00
2022-11-10T02:41:29.914Z,26.00
2022-11-10T02:44:22.514Z,25.90
2022-11-10T02:47:14.800Z,25.90
2022-11-10T02:50:07.720Z,25.90
2022-11-10T02:53:00.110Z,25.90
2022-11-10T02:55:53.841Z,26.00
2022-11-10T02:58:46.256Z,25.90
2022-11-10T03:01:39.089Z,26.00
2022-11-10T03:04:31.296Z,25.90
2022-11-10T03:07:23.687Z,26.00
2022-11-10T03:10:16.604Z,26.00
2022-11-10T03:13:10.318Z,25.90
2022-11-10T03:16:02.620Z,26.00
2022-11-10T03:18:55.264Z,25.90
2022-11-10T03:21:47.617Z,25.90
2022-11-10T03:24:40.068Z,25.90
2022-11-10T03:27:32.783Z,25.90
2022-11-10T03:30:26.993Z,25.90
2022-11-10T03:33:19.888Z,26.00
2022-11-10T03:36:12.784Z,25.90
2022-11-10T03:39:05.230Z,25.90
2022-11-10T03:41:57.846Z,25.90
2022-11-10T03:44:50.217Z,25.90
2022-11-10T03:47:47.471Z,25.90
2022-11-10T03:50:40.149Z,25.90
2022-11-10T03:53:32.739Z,25.90
2022-11-10T03:56:25.319Z,26.00
2022-11-10T03:59:18.038Z,25.90
2022-11-10T04:02:10.793Z,25.90
2022-11-10T04:05:25.240Z,25.90
2022-11-10T04:08:36.193Z,25.90
2022-11-10T04:11:46.208Z,25.90
2022-11-10T04:14:56.313Z,25.90
2022-11-10T04:17:51.140Z,25.90
2022-11-10T04:20:45.537Z,25.90
2022-11-10T04:23:38.333Z,25.90
2022-11-10T04:26:30.847Z,25.90
2022-11-10T04:29:23.297Z,25.90
2022-11-10T04:32:15.834Z,25.90
2022-11-10T04:35:08.516Z,25.90
2022-11-10T04:38:02.293Z,25.90
2022-11-10T04:40:55.233Z,25.90
2022-11-10T04:43:47.594Z,25.90
2022-11-10T04:46:41.385Z,25.90
2022-11-10T04:49:33.745Z,25.90
2022-11-10T04:52:26.131Z,25.90
2022-11-10T04:55:19.926Z,25.90
2022-11-10T04:58:13.233Z,25.90
2022-11-10T05:01:05.762Z,25.90
2022-11-10T05:03:59.608Z,25.90
2022-11-10T05:06:54.148Z,25.90
2022-11-10T05:09:46.463Z,25.90
2022-11-10T05:12:40.764Z,25.90
2022-11-10T05:15:34.024Z,25.90
2022-11-10T05:18:26.953Z,25.90
2022-11-10T05:21:19.697Z,25.90
2022-11-10T05:24:12.102Z,25.90
2022-11-10T05:27:04.709Z,25.90
2022-11-10T05:29:58.468Z,25.90
2022-11-10T05:32:51.094Z,25.90
2022-11-10T05:35:44.294Z,25.90
2022-11-10T05:38:42.913Z,25.90
2022-11-10T05:41:35.675Z,26.00
2022-11-10T05:44:28.025Z,25.90
2022-11-10T05:47:22.069Z,26.00
2022-11-10T05:50:14.831Z,25.90
2022-11-10T05:53:07.207Z,26.00
2022-11-10T05:55:59.773Z,25.90
2022-11-10T05:58:52.481Z,25.90
2022-11-10T06:01:45.166Z,25.90
2022-11-10T06:04:38.866Z,26.00
2022-11-10T06:07:31.349Z,26.00
2022-11-10T06:10:23.816Z,25.90
2022-11-10T06:13:16.668Z,25.90
2022-11-10T06:16:09.405Z,25.90
2022-11-10T06:19:02.062Z,26.00
2022-11-10T06:22:02.415Z,26.00
2022-11-10T06:24:57.481Z,26.00
2022-11-10T06:27:49.823Z,26.00
2022-11-10T06:30:42.216Z,26.00
2022-11-10T06:33:34.677Z,26.10
2022-11-10T06:36:27.050Z,26.10
2022-11-10T06:39:20.731Z,26.10
2022-11-10T06:42:13.398Z,26.10
2022-11-10T06:45:21.069Z,26.10
2022-11-10T06:48:15.060Z,26.10
2022-11-10T06:51:07.939Z,26.10
2022-11-10T06:54:00.560Z,26.00
2022-11-10T06:56:54.328Z,26.00
2022-11-10T06:59:47.106Z,26.00
2022-11-10T07:03:06.395Z,26.00
2022-11-10T07:05:59.941Z,26.00
2022-11-10T07:08:52.567Z,26.00
2022-11-10T07:11:44.937Z,26.00
2022-11-10T07:14:39.008Z,26.00
2022-11-10T07:17:31.541Z,26.00
2022-11-10T07:20:23.853Z,26.00
2022-11-10T07:23:16.416Z,26.00
2022-11-10T07:26:08.757Z,26.00
2022-11-10T07:29:01.630Z,26.00
2022-11-10T07:31:55.568Z,26.10
2022-11-10T07:34:47.864Z,26.10
2022-11-10T07:37:40.520Z,26.10
2022-11-10T07:40:33.014Z,26.10
2022-11-10T07:43:26.621Z,26.10
2022-11-10T07:46:18.996Z,26.10
2022-11-10T07:49:12.816Z,26.00
2022-11-10T07:52:05.770Z,26.10
2022-11-10T07:54:58.655Z,26.00
2022-11-10T07:57:51.521Z,26.00
2022-11-10T08:00:44.939Z,26.00
2022-11-10T08:03:37.578Z,25.90
2022-11-10T08:06:35.933Z,25.90
2022-11-10T08:09:28.526Z,25.80
2022-11-10T08:12:21.066Z,25.80
2022-11-10T08:15:13.881Z,25.80
2022-11-10T08:18:08.250Z,25.70
2022-11-10T08:21:02.747Z,25.70
2022-11-10T08:23:56.689Z,25.60
2022-11-10T08:26:49.267Z,25.60
2022-11-10T08:29:45.397Z,25.50
2022-11-10T08:32:37.986Z,25.50
2022-11-10T08:35:31.862Z,25.50
2022-11-10T08:38:25.462Z,25.50
2022-11-10T08:41:19.673Z,25.50
2022-11-10T08:44:18.111Z,25.50
2022-11-10T08:47:12.866Z,25.50
2022-11-10T08:50:05.427Z,25.50
2022-11-10T08:52:57.816Z,25.50
2022-11-10T08:55:51.526Z,25.50
2022-11-10T08:58:52.840Z,25.50
2022-11-10T09:01:45.524Z,25.50
2022-11-10T09:04:37.914Z,25.50
2022-11-10T09:07:31.123Z,25.50
2022-11-10T09:10:23.484Z,25.40
2022-11-10T09:13:17.252Z,25.50
2022-11-10T09:16:11.807Z,25.50
2022-11-10T09:19:04.537Z,25.50
2022-11-10T09:21:56.916Z,25.50
2022-11-10T09:24:49.421Z,25.50
2022-11-10T09:27:42.390Z,25.50
2022-11-10T09:30:35.131Z,25.50
2022-11-10T09:33:29.365Z,25.50
2022-11-10T09:36:21.651Z,25.50
2022-11-10T09:39:15.406Z,25.50
2022-11-10T09:42:22.095Z,25.50
2022-11-10T09:45:23.499Z,25.50
2022-11-10T09:48:21.452Z,25.50
2022-11-10T09:51:21.063Z,25.50
2022-11-10T09:54:29.925Z,25.60
2022-11-10T09:57:27.092Z,25.60
2022-11-10T10:00:20.180Z,25.60
2022-11-10T10:03:17.275Z,25.50
2022-11-10T10:06:12.785Z,25.60
2022-11-10T10:09:13.148Z,25.50
2022-11-10T10:12:20.140Z,25.50
2022-11-10T10:15:25.548Z,25.50
2022-11-10T10:18:27.164Z,25.50
2022-11-10T10:21:34.338Z,25.50
2022-11-10T10:24:31.155Z,25.50
2022-11-10T10:27:27.128Z,25.50
2022-11-10T10:30:21.761Z,25.50
2022-11-10T10:33:16.677Z,25.50
2022-11-10T10:36:11.608Z,25.50
2022-11-10T10:39:08.852Z,25.50
2022-11-10T10:42:02.535Z,25.50
2022-11-10T10:45:14.485Z,25.50
2022-11-10T10:48:26.343Z,25.50
2022-11-10T10:51:36.286Z,25.50
2022-11-10T10:54:30.655Z,25.50
2022-11-10T10:57:26.112Z,25.60
2022-11-10T11:03:58.913Z,25.60
2022-11-10T11:06:59.213Z,25.60
2022-11-10T11:09:51.730Z,25.60
2022-11-10T11:12:45.479Z,25.70
2022-11-10T11:15:38.107Z,25.70
2022-11-10T11:18:32.537Z,25.70
2022-11-10T11:21:33.835Z,25.70
2022-11-10T11:24:35.693Z,25.70
2022-11-10T11:27:36.713Z,25.70
2022-11-10T11:30:41.638Z,25.70
2022-11-10T11:33:36.494Z,25.70
2022-11-10T11:36:40.268Z,25.70
2022-11-10T11:39:41.874Z,25.70
2022-11-10T11:42:45.868Z,25.70
2022-11-10T11:45:49.986Z,25.70
2022-11-10T11:48:52.865Z,25.70
2022-11-10T11:51:54.388Z,25.70
2022-11-10T11:55:07.207Z,25.70
2022-11-10T11:58:24.912Z,25.70
2022-11-10T12:01:38.205Z,25.70
2022-11-10T12:04:47.447Z,25.70
2022-11-10T12:07:51.613Z,25.70
2022-11-10T12:10:51.919Z,25.70
2022-11-10T12:13:58.726Z,25.70
2022-11-10T12:17:01.123Z,25.80
2022-11-10T12:20:01.959Z,25.80
2022-11-10T12:23:03.371Z,25.80
2022-11-10T12:26:06.803Z,25.80
2022-11-10T12:29:06.668Z,25.80
2022-11-10T12:32:08.003Z,25.80
2022-11-10T12:35:04.962Z,25.80
2022-11-10T12:38:02.496Z,25.80
2022-11-10T12:41:02.650Z,25.80
2022-11-10T12:44:05.502Z,25.80
2022-11-10T12:47:02.662Z,25.80
2022-11-10T12:50:04.891Z,25.80
2022-11-10T12:53:03.074Z,25.80
2022-11-10T12:56:00.982Z,25.80
2022-11-10T12:59:16.314Z,25.80
2022-11-10T13:02:28.612Z,25.80
2022-11-10T13:05:33.906Z,25.80
2022-11-10T13:08:30.878Z,25.80
2022-11-10T13:11:28.724Z,25.80
2022-11-10T13:14:25.108Z,25.80
2022-11-10T13:17:56.745Z,25.80
2022-11-10T13:20:51.854Z,25.80
2022-11-10T13:24:20.333Z,25.80
2022-11-10T13:27:14.952Z,25.80
2022-11-10T13:30:10.183Z,25.80
2022-11-10T13:33:38.067Z,25.80
2022-11-10T13:36:40.406Z,25.80
2022-11-10T13:39:34.556Z,25.80
2022-11-10T13:42:27.264Z,25.80
2022-11-10T13:45:34.345Z,25.80
2022-11-10T13:48:37.379Z,25.80
2022-11-10T13:51:42.554Z,25.80
2022-11-10T13:54:56.091Z,25.80
2022-11-10T13:58:00.446Z,25.80
2022-11-10T14:01:26.237Z,25.80
2022-11-10T14:04:41.237Z,25.80
2022-11-10T14:07:39.313Z,25.80
2022-11-10T14:10:40.449Z,25.80
2022-11-10T14:13:40.469Z,25.80
2022-11-10T14:16:40.887Z,25.80
2022-11-10T14:19:39.825Z,25.80
2022-11-10T14:22:40.102Z,25.80
2022-11-10T14:25:36.941Z,25.80
2022-11-10T14:28:30.774Z,25.80
2022-11-10T14:31:25.447Z,25.80
2022-11-10T14:34:19.507Z,25.80
2022-11-10T14:37:19.051Z,25.80
2022-11-10T14:40:19.192Z,25.80
2022-11-10T14:43:27.742Z,25.80
2022-11-10T14:46:26.183Z,25.80
2022-11-10T14:49:24.207Z,25.80
2022-11-10T14:52:17.264Z,25.80
2022-11-10T14:55:16.514Z,25.80
2022-11-10T14:58:15.015Z,25.80
2022-11-10T15:01:08.580Z,25.80
2022-11-10T15:04:01.413Z,25.90
2022-11-10T15:06:54.522Z,25.80
2022-11-10T15:10:06.442Z,25.90
2022-11-10T15:13:05.695Z,25.90
2022-11-10T15:16:22.335Z,25.90
2022-11-10T15:19:28.089Z,25.90
2022-11-10T15:22:23.878Z,25.90
2022-11-10T15:25:20.221Z,25.90
2022-11-10T15:28:25.756Z,25.90
2022-11-10T15:31:25.205Z,25.90
2022-11-10T15:34:42.315Z,25.90
2022-11-10T15:37:34.770Z,25.90
2022-11-10T15:40:37.048Z,25.90
2022-11-10T15:43:30.897Z,25.90
2022-11-10T15:46:26.004Z,25.90
2022-11-10T15:49:23.569Z,25.90
2022-11-10T15:52:42.173Z,25.90
2022-11-10T15:55:35.633Z,25.90
2022-11-10T15:58:30.706Z,25.90
2022-11-10T16:01:23.449Z,26.00
2022-11-10T16:04:15.812Z,26.00
2022-11-10T16:07:09.613Z,26.00
2022-11-10T16:10:02.334Z,26.00
2022-11-10T16:12:54.781Z,26.00
2022-11-10T16:15:48.738Z,26.10
2022-11-10T16:18:43.812Z,26.00
2022-11-10T16:21:36.289Z,26.10
2022-11-10T16:24:28.758Z,26.10
2022-11-10T16:27:22.049Z,26.00
2022-11-10T16:30:15.465Z,26.00
2022-11-10T16:33:15.603Z,26.00
2022-11-10T16:36:14.185Z,26.00
2022-11-10T16:39:13.100Z,26.00
2022-11-10T16:42:05.408Z,26.00
2022-11-10T16:44:57.984Z,26.00
2022-11-10T16:47:52.481Z,26.00
2022-11-10T16:50:46.551Z,26.00
2022-11-10T16:53:39.883Z,26.00
2022-11-10T16:56:32.566Z,26.00
2022-11-10T16:59:25.302Z,26.00
2022-11-10T17:02:29.898Z,26.00
2022-11-10T17:05:22.564Z,26.00
2022-11-10T17:08:28.156Z,26.00
2022-11-10T17:11:20.545Z,26.00
2022-11-10T17:14:14.056Z,26.00
2022-11-10T17:17:06.129Z,26.00
2022-11-10T17:19:58.563Z,25.90
2022-11-10T17:22:51.267Z,26.00
2022-11-10T17:25:45.752Z,25.90
2022-11-10T17:28:38.240Z,25.90
2022-11-10T17:31:31.183Z,25.90
2022-11-10T17:34:23.951Z,25.90
2022-11-10T17:37:17.211Z,25.90
2022-11-10T17:40:19.200Z,25.90
2022-11-10T17:43:15.329Z,25.90
2022-11-10T17:46:08.057Z,25.90
2022-11-10T17:49:03.195Z,25.90
2022-11-10T17:51:55.661Z,25.90
2022-11-10T17:54:48.054Z,25.90
2022-11-10T17:57:42.290Z,25.90
2022-11-10T18:00:35.940Z,25.90
2022-11-10T18:03:28.571Z,25.80
2022-11-10T18:06:21.932Z,25.90
2022-11-10T18:09:14.336Z,25.90
2022-11-10T18:12:06.951Z,25.90
2022-11-10T18:14:59.650Z,25.90
2022-11-10T18:17:58.644Z,25.90
2022-11-10T18:20:53.616Z,25.90
2022-11-10T18:23:46.260Z,25.90
2022-11-10T18:26:38.889Z,25.80
2022-11-10T18:29:31.437Z,25.90
2022-11-10T18:32:24.464Z,25.90
2022-11-10T18:35:19.056Z,25.90
2022-11-10T18:38:13.765Z,25.90
2022-11-10T18:41:21.063Z,25.90
2022-11-10T18:44:13.665Z,25.90
2022-11-10T18:47:06.062Z,25.80
2022-11-10T18:49:58.374Z,25.90
2022-11-10T18:52:52.320Z,25.90
2022-11-10T18:55:54.083Z,25.90
2022-11-10T18:58:56.196Z,25.80
2022-11-10T19:01:50.396Z,25.80
2022-11-10T19:04:42.982Z,25.80
2022-11-10T19:07:35.430Z,25.90
2022-11-10T19:10:29.568Z,25.90
2022-11-10T19:13:22.833Z,25.90
2022-11-10T19:16:19.722Z,25.80
2022-11-10T19:19:12.272Z,25.80
2022-11-10T19:22:04.932Z,25.80
2022-11-10T19:25:12.578Z,25.80
2022-11-10T19:28:06.386Z,25.80
2022-11-10T19:31:02.455Z,25.80
2022-11-10T19:33:56.553Z,25.80
2022-11-10T19:36:49.526Z,25.80
2022-11-10T19:39:42.145Z,25.80
2022-11-10T19:42:35.003Z,25.80
2022-11-10T19:45:28.906Z,25.80
2022-11-10T19:48:21.367Z,25.80
2022-11-10T19:51:15.143Z,25.80
2022-11-10T19:54:09.486Z,25.80
2022-11-10T19:57:02.515Z,25.80
2022-11-10T19:59:54.990Z,25.80
2022-11-10T20:02:49.126Z,25.80
2022-11-10T20:05:41.571Z,25.80
2022-11-10T20:08:34.617Z,25.80
2022-11-10T20:11:28.084Z,25.80
2022-11-10T20:14:20.800Z,25.80
2022-11-10T20:17:13.380Z,25.80
2022-11-10T20:20:08.076Z,25.80
2022-11-10T20:23:02.685Z,25.80
2022-11-10T20:26:04.208Z,25.80
2022-11-10T20:28:56.406Z,25.80
2022-11-10T20:31:49.077Z,25.80
2022-11-10T20:34:41.713Z,25.80
2022-11-10T20:37:36.113Z,25.80
2022-11-10T20:40:43.975Z,25.80
2022-11-10T20:43:38.603Z,25.80
2022-11-10T20:46:53.351Z,25.80
2022-11-10T20:49:43.951Z,25.80
2022-11-10T20:52:37.897Z,25.80
2022-11-10T20:55:52.730Z,25.80
2022-11-10T20:58:43.057Z,25.80
2022-11-10T21:01:37.808Z,25.80
2022-11-10T21:04:30.579Z,25.80
2022-11-10T21:07:22.944Z,25.80
2022-11-10T21:10:17.161Z,25.80
2022-11-10T21:13:09.571Z,25.80
2022-11-10T21:16:04.672Z,25.80
2022-11-10T21:18:57.972Z,25.80
2022-11-10T21:21:51.845Z,25.80
2022-11-10T21:24:43.901Z,25.80
2022-11-10T21:27:37.600Z,25.80
2022-11-10T21:30:30.126Z,25.80
2022-11-10T21:33:22.770Z,25.80
2022-11-10T21:36:15.378Z,25.80
2022-11-10T21:39:08.232Z,25.80
2022-11-10T21:42:01.032Z,25.80
2022-11-10T21:44:55.010Z,25.80
2022-11-10T21:47:47.716Z,25.80
2022-11-10T21:50:40.065Z,25.80
2022-11-10T21:53:33.574Z,25.80
2022-11-10T21:56:26.075Z,25.80
2022-11-10T21:59:19.393Z,25.80
2022-11-10T22:02:14.824Z,25.80
2022-11-10T22:05:07.773Z,25.80
2022-11-10T22:08:00.560Z,25.80
2022-11-10T22:11:22.415Z,25.80
2022-11-10T22:14:32.496Z,25.80
2022-11-10T22:17:43.491Z,25.80
2022-11-10T22:20:36.232Z,25.80
2022-11-10T22:23:46.293Z,25.80
2022-11-10T22:26:38.799Z,25.80
2022-11-10T22:29:33.424Z,25.80
2022-11-10T22:32:27.272Z,25.80
2022-11-10T22:35:33.616Z,25.80
2022-11-10T22:38:25.935Z,25.80
2022-11-10T22:41:35.751Z,25.80
2022-11-10T22:44:28.462Z,25.80
2022-11-10T22:47:20.882Z,25.80
2022-11-10T22:50:14.663Z,25.80
2022-11-10T22:53:07.167Z,25.80
2022-11-10T22:56:01.716Z,25.80
2022-11-10T22:58:59.644Z,25.80
2022-11-10T23:01:52.864Z,25.80
2022-11-10T23:04:45.450Z,25.80
2022-11-10T23:07:39.408Z,25.80
2022-11-10T23:10:31.815Z,25.80
2022-11-10T23:13:24.531Z,25.80
2022-11-10T23:16:19.646Z,25.80
2022-11-10T23:19:12.309Z,25.80
2022-11-10T23:22:04.741Z,25.80
2022-11-10T23:24:58.569Z,25.80
2022-11-10T23:27:51.128Z,25.80
2022-11-10T23:30:43.642Z,25.80
2022-11-10T23:33:36.914Z,25.80
2022-11-10T23:36:30.807Z,25.80
2022-11-10T23:39:23.348Z,25.80
2022-11-10T23:42:17.220Z,25.80
2022-11-10T23:45:11.282Z,25.80
2022-11-10T23:48:06.889Z,25.80
2022-11-10T23:50:59.798Z,25.80
2022-11-10T23:53:52.413Z,25.80
2022-11-10T23:56:44.736Z,25.80
2022-11-10T23:59:38.603Z,25.80
